CheckWX is a tool to help pilots better visualize weather data.  It is not intended as a substitute for an official pre-flight weather briefing.

16:42:42 UTC

PAPG METAR
Petersburg James A Johnson Airport
Petersburg, Alaska, USA
Current

47 mins ago

PAPG 211556Z 32003KT 10SM -RA OVC024 06/03 A2974 RMK AO2 SLP074 P0001 T00560033
Observed
Nov-21 @ 15:56 UTC
Wind
  • 320° at 3 KTS
Visibility
10 SM
Flight Rules
MVFR
Conditions
Light Rain
Cloud Levels
  • Overcast at 2,400' AGL
Temperature
C / 43°F
Dewpoint
C / 37°F
Humidity
81%
Altimeter
29.74" Hg
Pressure
1007.12 hPa
Current Rain
0.01"
Previous

2 hours ago

PAPG 211456Z AUTO 00000KT 10SM -RA BKN020 OVC043 06/04 A2976 RMK AO2 SLP082 P0002 60014 T00560039 58019
Observed
Nov-21 @ 14:56 UTC
Visibility
10 SM
Flight Rules
MVFR
Conditions
Light Rain
Cloud Levels
  • Broken at 2,000' AGL
  • Overcast at 4,300' AGL
Temperature
C / 43°F
Dewpoint
C / 39°F
Humidity
87%
Altimeter
29.76" Hg
Pressure
1007.82 hPa
Current Rain
0.02"
Previous

3 hours ago

PAPG 211356Z AUTO VRB03KT 10SM -RA BKN022 OVC046 06/03 A2979 RMK AO2 SLP090 P0004 T00560033
Observed
Nov-21 @ 13:56 UTC
Wind
  • Variable at 3 KTS
Visibility
10 SM
Flight Rules
MVFR
Conditions
Light Rain
Cloud Levels
  • Broken at 2,200' AGL
  • Overcast at 4,600' AGL
Temperature
C / 43°F
Dewpoint
C / 37°F
Humidity
81%
Altimeter
29.79" Hg
Pressure
1008.82 hPa
Current Rain
0.04"